createdAt,value
2017-05-25T00:00:36.158Z,11.75
2017-05-25T00:01:36.776Z,11.70
2017-05-25T00:02:37.389Z,11.66
2017-05-25T00:03:38.003Z,11.62
2017-05-25T00:04:38.616Z,11.54
2017-05-25T00:05:39.230Z,11.59
2017-05-25T00:06:39.851Z,11.62
2017-05-25T00:07:40.505Z,11.54
2017-05-25T00:08:41.118Z,11.48
2017-05-25T00:09:41.737Z,11.48
2017-05-25T00:10:42.399Z,11.47
2017-05-25T00:11:43.014Z,11.50
2017-05-25T00:12:43.661Z,11.48
2017-05-25T00:13:44.280Z,11.54
2017-05-25T00:14:44.925Z,11.51
2017-05-25T00:15:45.589Z,11.41
2017-05-25T00:16:46.205Z,11.45
2017-05-25T00:17:46.820Z,11.47
2017-05-25T00:18:47.440Z,11.52
2017-05-25T00:19:48.051Z,11.63
2017-05-25T00:20:48.664Z,11.59
2017-05-25T00:21:49.279Z,11.57
2017-05-25T00:22:49.931Z,11.62
2017-05-25T00:23:50.541Z,11.62
2017-05-25T00:24:51.162Z,11.63
2017-05-25T00:25:51.823Z,11.63
2017-05-25T00:26:52.471Z,11.78
2017-05-25T00:27:53.086Z,11.73
2017-05-25T00:28:53.699Z,11.73
2017-05-25T00:29:54.314Z,11.66
2017-05-25T00:30:54.979Z,11.68
2017-05-25T00:31:55.592Z,11.62
2017-05-25T00:32:56.203Z,11.63
2017-05-25T00:33:56.821Z,11.59
2017-05-25T00:34:57.442Z,11.52
2017-05-25T00:35:58.053Z,11.57
2017-05-25T00:36:58.666Z,11.57
2017-05-25T00:37:59.279Z,11.54
2017-05-25T00:38:59.895Z,11.60
2017-05-25T00:40:00.513Z,11.54
2017-05-25T00:41:01.180Z,11.59
2017-05-25T00:42:01.794Z,11.62
2017-05-25T00:43:02.407Z,11.59
2017-05-25T00:44:03.025Z,11.63
2017-05-25T00:45:03.637Z,11.55
2017-05-25T00:46:04.301Z,11.57
2017-05-25T00:47:04.914Z,11.52
2017-05-25T00:48:05.530Z,11.60
2017-05-25T00:49:06.147Z,11.62
2017-05-25T00:50:06.761Z,11.52
2017-05-25T00:51:07.373Z,11.57
2017-05-25T00:52:08.020Z,11.62
2017-05-25T00:53:08.633Z,11.57
2017-05-25T00:54:09.246Z,11.51
2017-05-25T00:55:09.861Z,11.51
2017-05-25T00:56:10.525Z,11.57
2017-05-25T00:57:11.138Z,11.45
2017-05-25T00:58:11.752Z,11.52
2017-05-25T00:59:12.369Z,11.50
2017-05-25T01:00:12.983Z,11.45
2017-05-25T01:01:13.647Z,11.51
2017-05-25T01:02:14.261Z,11.45
2017-05-25T01:03:14.876Z,11.51
2017-05-25T01:04:15.494Z,11.45
2017-05-25T01:05:16.112Z,11.44
2017-05-25T01:06:16.731Z,11.43
2017-05-25T01:07:17.342Z,11.47
2017-05-25T01:08:17.962Z,11.36
2017-05-25T01:09:18.573Z,11.36
2017-05-25T01:10:19.191Z,11.41
2017-05-25T01:11:19.808Z,11.36
2017-05-25T01:12:20.427Z,11.45
2017-05-25T01:13:21.037Z,11.44
2017-05-25T01:14:21.659Z,11.43
2017-05-25T01:15:22.268Z,11.35
2017-05-25T01:16:22.932Z,11.44
2017-05-25T01:17:23.551Z,11.43
2017-05-25T01:18:24.169Z,11.41
2017-05-25T01:19:24.780Z,11.30
2017-05-25T01:20:25.394Z,11.35
2017-05-25T01:21:26.006Z,11.30
2017-05-25T01:22:26.658Z,11.25
2017-05-25T01:23:27.270Z,11.26
2017-05-25T01:24:27.890Z,11.26
2017-05-25T01:25:28.506Z,11.15
2017-05-25T01:26:29.169Z,11.26
2017-05-25T01:27:29.784Z,11.18
2017-05-25T01:28:30.403Z,11.27
2017-05-25T01:29:31.013Z,11.18
2017-05-25T01:30:31.626Z,11.22
2017-05-25T01:31:32.290Z,11.25
2017-05-25T01:32:32.904Z,11.23
2017-05-25T01:33:33.519Z,11.27
2017-05-25T01:34:34.135Z,11.26
2017-05-25T01:35:34.753Z,11.22
2017-05-25T01:36:35.362Z,11.29
2017-05-25T01:37:35.977Z,11.29
2017-05-25T01:38:36.597Z,11.33
2017-05-25T01:39:37.207Z,11.26
2017-05-25T01:40:37.826Z,11.22
2017-05-25T01:41:38.444Z,11.27
2017-05-25T01:42:39.055Z,11.35
2017-05-25T01:43:39.699Z,11.36
2017-05-25T01:44:40.284Z,11.30
2017-05-25T01:45:40.898Z,11.32
2017-05-25T01:46:41.516Z,11.33
2017-05-25T01:47:42.125Z,11.35
2017-05-25T01:48:42.738Z,11.27
2017-05-25T01:49:43.353Z,11.26
2017-05-25T01:50:43.970Z,11.29
2017-05-25T01:51:44.584Z,11.35
2017-05-25T01:52:45.198Z,11.32
2017-05-25T01:53:45.812Z,11.33
2017-05-25T01:54:46.432Z,11.37
2017-05-25T01:55:47.049Z,11.36
2017-05-25T01:56:47.658Z,11.30
2017-05-25T01:57:48.275Z,11.37
2017-05-25T01:58:48.889Z,11.32
2017-05-25T01:59:49.508Z,11.30
2017-05-25T02:00:50.120Z,11.32
2017-05-25T02:01:50.784Z,11.33
2017-05-25T02:02:51.429Z,11.36
2017-05-25T02:03:52.045Z,11.35
2017-05-25T02:04:52.657Z,11.30
2017-05-25T02:05:53.272Z,11.32
2017-05-25T02:06:53.934Z,11.23
2017-05-25T02:07:54.548Z,11.22
2017-05-25T02:08:55.160Z,11.18
2017-05-25T02:09:55.774Z,11.23
2017-05-25T02:10:56.388Z,11.12
2017-05-25T02:11:57.031Z,11.18
2017-05-25T02:12:57.644Z,11.11
2017-05-25T02:13:58.257Z,11.12
2017-05-25T02:14:58.871Z,11.11
2017-05-25T02:15:59.485Z,11.18
2017-05-25T02:17:00.100Z,11.07
2017-05-25T02:18:00.718Z,11.10
2017-05-25T02:19:01.329Z,11.08
2017-05-25T02:20:01.983Z,11.05
2017-05-25T02:21:02.596Z,11.02
2017-05-25T02:22:03.258Z,11.02
2017-05-25T02:23:03.873Z,10.94
2017-05-25T02:24:04.485Z,10.87
2017-05-25T02:25:05.105Z,10.94
2017-05-25T02:26:05.750Z,10.79
2017-05-25T02:27:06.419Z,10.84
2017-05-25T02:28:07.032Z,10.84
2017-05-25T02:29:07.644Z,10.82
2017-05-25T02:30:08.258Z,10.74
2017-05-25T02:31:08.873Z,10.89
2017-05-25T02:32:09.538Z,10.89
2017-05-25T02:33:10.150Z,10.75
2017-05-25T02:34:10.763Z,10.87
2017-05-25T02:35:11.377Z,10.71
2017-05-25T02:36:11.993Z,10.78
2017-05-25T02:37:12.662Z,10.69
2017-05-25T02:38:13.272Z,10.71
2017-05-25T02:39:13.886Z,10.64
2017-05-25T02:40:14.502Z,10.72
2017-05-25T02:41:15.112Z,10.63
2017-05-25T02:42:15.776Z,10.59
2017-05-25T02:43:16.390Z,10.56
2017-05-25T02:44:17.037Z,10.49
2017-05-25T02:45:17.650Z,10.56
2017-05-25T02:46:18.262Z,10.56
2017-05-25T02:47:18.876Z,10.46
2017-05-25T02:48:19.490Z,10.41
2017-05-25T02:49:20.104Z,10.53
2017-05-25T02:50:20.717Z,10.57
2017-05-25T02:51:21.331Z,10.54
2017-05-25T02:52:21.945Z,10.59
2017-05-25T02:53:22.559Z,10.56
2017-05-25T02:54:23.174Z,10.56
2017-05-25T02:55:23.792Z,10.56
2017-05-25T02:56:24.404Z,10.59
2017-05-25T02:57:25.022Z,10.49
2017-05-25T02:58:25.638Z,10.51
2017-05-25T02:59:26.250Z,10.49
2017-05-25T03:00:26.896Z,10.53
2017-05-25T03:01:27.509Z,10.49
2017-05-25T03:02:28.174Z,10.56
2017-05-25T03:03:28.788Z,10.59
2017-05-25T03:04:29.407Z,10.51
2017-05-25T03:05:30.021Z,10.63
2017-05-25T03:06:30.632Z,10.56
2017-05-25T03:07:31.300Z,10.49
2017-05-25T03:08:31.914Z,10.56
2017-05-25T03:09:32.525Z,10.60
2017-05-25T03:10:33.138Z,10.41
2017-05-25T03:11:33.758Z,10.53
2017-05-25T03:12:34.370Z,10.53
2017-05-25T03:13:34.988Z,10.53
2017-05-25T03:14:35.606Z,10.56
2017-05-25T03:15:36.217Z,10.53
2017-05-25T03:16:36.857Z,10.51
2017-05-25T03:17:37.498Z,10.48
2017-05-25T03:18:38.111Z,10.41
2017-05-25T03:19:38.724Z,10.30
2017-05-25T03:20:39.336Z,10.37
2017-05-25T03:21:39.951Z,10.38
2017-05-25T03:22:40.571Z,10.37
2017-05-25T03:23:41.186Z,10.34
2017-05-25T03:24:41.803Z,10.40
2017-05-25T03:25:42.414Z,10.40
2017-05-25T03:26:43.026Z,10.53
2017-05-25T03:27:43.638Z,10.38
2017-05-25T03:28:44.259Z,10.35
2017-05-25T03:29:44.871Z,10.26
2017-05-25T03:30:45.490Z,10.35
2017-05-25T03:31:46.099Z,10.30
2017-05-25T03:32:46.712Z,10.30
2017-05-25T03:33:47.325Z,10.30
2017-05-25T03:34:47.937Z,10.34
2017-05-25T03:35:48.549Z,10.34
2017-05-25T03:36:49.161Z,10.30
2017-05-25T03:37:49.824Z,10.26
2017-05-25T03:38:50.439Z,10.31
2017-05-25T03:39:51.051Z,10.17
2017-05-25T03:40:51.663Z,10.17
2017-05-25T03:41:52.276Z,10.17
2017-05-25T03:42:52.921Z,10.20
2017-05-25T03:43:53.569Z,10.19
2017-05-25T03:44:54.187Z,10.22
2017-05-25T03:45:54.798Z,10.22
2017-05-25T03:46:55.412Z,10.19
2017-05-25T03:47:56.024Z,10.17
2017-05-25T03:48:56.636Z,10.20
2017-05-25T03:49:57.250Z,10.17
2017-05-25T03:50:57.902Z,10.16
2017-05-25T03:51:58.511Z,10.09
2017-05-25T03:52:59.126Z,10.10
2017-05-25T03:53:59.741Z,10.09
2017-05-25T03:55:00.352Z,10.05
2017-05-25T03:56:01.000Z,10.07
2017-05-25T03:57:01.620Z,10.05
2017-05-25T03:58:02.230Z,10.09
2017-05-25T03:59:02.844Z,10.10
2017-05-25T04:00:03.457Z,10.13
2017-05-25T04:01:04.077Z,10.17
2017-05-25T04:02:04.729Z,10.10
2017-05-25T04:03:05.395Z,10.07
2017-05-25T04:04:05.956Z,9.99
2017-05-25T04:05:06.576Z,9.98
2017-05-25T04:06:07.189Z,9.99
2017-05-25T04:07:07.800Z,9.95
2017-05-25T04:08:08.417Z,9.94
2017-05-25T04:09:09.026Z,9.94
2017-05-25T04:10:09.645Z,9.95
2017-05-25T04:11:10.262Z,9.94
2017-05-25T04:12:10.874Z,9.99
2017-05-25T04:13:11.486Z,9.94
2017-05-25T04:14:12.104Z,9.99
2017-05-25T04:15:12.713Z,9.97
2017-05-25T04:16:13.328Z,10.09
2017-05-25T04:17:13.941Z,10.01
2017-05-25T04:18:14.554Z,10.10
2017-05-25T04:19:15.172Z,10.04
2017-05-25T04:20:15.783Z,9.98
2017-05-25T04:21:16.401Z,10.16
2017-05-25T04:22:17.013Z,10.16
2017-05-25T04:23:17.625Z,10.13
2017-05-25T04:24:18.241Z,10.16
2017-05-25T04:25:18.853Z,10.19
2017-05-25T04:26:19.467Z,10.19
2017-05-25T04:27:20.082Z,10.19
2017-05-25T04:28:20.747Z,10.16
2017-05-25T04:29:21.363Z,10.17
2017-05-25T04:30:21.976Z,10.19
2017-05-25T04:31:22.590Z,10.19
2017-05-25T04:32:23.204Z,10.22
2017-05-25T04:33:23.850Z,10.12
2017-05-25T04:34:24.464Z,10.20
2017-05-25T04:35:25.080Z,10.17
2017-05-25T04:36:25.697Z,10.15
2017-05-25T04:37:26.314Z,10.13
2017-05-25T04:38:26.975Z,10.17
2017-05-25T04:39:27.589Z,10.16
2017-05-25T04:40:28.203Z,10.20
2017-05-25T04:41:28.819Z,10.19
2017-05-25T04:42:29.433Z,10.25
2017-05-25T04:43:30.056Z,10.19
2017-05-25T04:44:30.660Z,10.26
2017-05-25T04:45:31.305Z,10.28
2017-05-25T04:46:31.954Z,10.28
2017-05-25T04:47:32.575Z,10.33
2017-05-25T04:48:33.242Z,10.19
2017-05-25T04:49:33.853Z,10.30
2017-05-25T04:50:34.470Z,10.19
2017-05-25T04:51:35.085Z,10.23
2017-05-25T04:52:35.698Z,10.26
2017-05-25T04:53:36.315Z,10.28
2017-05-25T04:54:36.934Z,10.28
2017-05-25T04:55:37.541Z,10.28
2017-05-25T04:56:38.155Z,10.28
2017-05-25T04:57:38.770Z,10.31
2017-05-25T04:58:39.391Z,10.22
2017-05-25T04:59:40.002Z,10.34
2017-05-25T05:00:40.617Z,10.30
2017-05-25T05:01:41.231Z,10.35
2017-05-25T05:02:41.846Z,10.38
2017-05-25T05:03:42.457Z,10.31
2017-05-25T05:04:43.078Z,10.42
2017-05-25T05:05:43.690Z,10.35
2017-05-25T05:06:44.304Z,10.35
2017-05-25T05:07:44.952Z,10.31
2017-05-25T05:08:45.571Z,10.34
2017-05-25T05:09:46.183Z,10.34
2017-05-25T05:10:46.798Z,10.38
2017-05-25T05:11:47.416Z,10.38
2017-05-25T05:12:48.034Z,10.34
2017-05-25T05:13:48.695Z,10.37
2017-05-25T05:14:49.309Z,10.40
2017-05-25T05:15:49.925Z,10.38
2017-05-25T05:16:50.539Z,10.34
2017-05-25T05:17:51.154Z,10.40
2017-05-25T05:18:51.818Z,10.34
2017-05-25T05:19:52.440Z,10.35
2017-05-25T05:20:53.085Z,10.42
2017-05-25T05:21:53.701Z,10.44
2017-05-25T05:22:54.314Z,10.49
2017-05-25T05:23:54.928Z,10.37
2017-05-25T05:24:55.541Z,10.41
2017-05-25T05:25:56.160Z,10.35
2017-05-25T05:26:56.773Z,10.41
2017-05-25T05:27:57.427Z,10.44
2017-05-25T05:28:58.039Z,10.35
2017-05-25T05:29:58.653Z,10.34
2017-05-25T05:30:59.267Z,10.42
2017-05-25T05:31:59.888Z,10.28
2017-05-25T05:33:00.497Z,10.30
2017-05-25T05:34:01.110Z,10.22
2017-05-25T05:35:01.726Z,10.23
2017-05-25T05:36:02.348Z,10.23
2017-05-25T05:37:02.959Z,10.33
2017-05-25T05:38:03.573Z,10.37
2017-05-25T05:39:04.488Z,10.42
2017-05-25T05:40:05.135Z,10.46
2017-05-25T05:41:05.748Z,10.53
2017-05-25T05:42:06.362Z,10.57
2017-05-25T05:43:06.975Z,10.51
2017-05-25T05:44:07.596Z,10.49
2017-05-25T05:45:08.215Z,10.41
2017-05-25T05:46:08.832Z,10.31
2017-05-25T05:47:09.444Z,10.23
2017-05-25T05:48:10.062Z,10.22
2017-05-25T05:49:10.678Z,10.16
2017-05-25T05:50:11.292Z,10.22
2017-05-25T05:51:11.907Z,10.23
2017-05-25T05:52:12.520Z,10.35
2017-05-25T05:53:13.136Z,10.35
2017-05-25T05:54:13.805Z,10.35
2017-05-25T05:55:14.417Z,10.28
2017-05-25T05:56:15.034Z,10.30
2017-05-25T05:57:15.654Z,10.30
2017-05-25T05:58:16.263Z,10.38
2017-05-25T05:59:16.880Z,10.30
2017-05-25T06:00:17.494Z,10.38
2017-05-25T06:01:18.110Z,10.38
2017-05-25T06:02:18.731Z,10.41
2017-05-25T06:03:19.346Z,10.42
2017-05-25T06:04:19.960Z,10.41
2017-05-25T06:05:20.576Z,10.37
2017-05-25T06:06:21.191Z,10.30
2017-05-25T06:07:21.805Z,10.25
2017-05-25T06:08:22.422Z,10.30
2017-05-25T06:09:23.038Z,10.19
2017-05-25T06:10:23.660Z,10.30
2017-05-25T06:11:24.271Z,10.31
2017-05-25T06:12:24.892Z,10.38
2017-05-25T06:13:25.505Z,10.33
2017-05-25T06:14:26.129Z,10.44
2017-05-25T06:15:26.746Z,10.42
2017-05-25T06:16:27.365Z,10.49
2017-05-25T06:17:27.983Z,10.57
2017-05-25T06:18:28.630Z,10.60
2017-05-25T06:19:29.246Z,10.48
2017-05-25T06:20:29.868Z,10.60
2017-05-25T06:21:30.481Z,10.56
2017-05-25T06:22:31.097Z,10.61
2017-05-25T06:23:31.760Z,10.56
2017-05-25T06:24:32.338Z,10.49
2017-05-25T06:25:32.951Z,10.56
2017-05-25T06:26:33.573Z,10.60
2017-05-25T06:27:34.191Z,10.60
2017-05-25T06:28:34.805Z,10.59
2017-05-25T06:29:35.472Z,10.68
2017-05-25T06:30:36.088Z,10.69
2017-05-25T06:31:36.737Z,10.76
2017-05-25T06:32:37.353Z,10.69
2017-05-25T06:33:37.969Z,10.82
2017-05-25T06:34:38.633Z,10.72
2017-05-25T06:35:39.252Z,10.69
2017-05-25T06:36:39.867Z,10.72
2017-05-25T06:37:40.484Z,10.74
2017-05-25T06:38:41.101Z,10.68
2017-05-25T06:39:41.716Z,10.69
2017-05-25T06:40:42.336Z,10.75
2017-05-25T06:41:42.952Z,10.74
2017-05-25T06:42:43.567Z,10.84
2017-05-25T06:43:44.185Z,10.76
2017-05-25T06:44:44.850Z,10.79
2017-05-25T06:45:45.468Z,10.78
2017-05-25T06:46:46.084Z,10.89
2017-05-25T06:47:46.701Z,10.94
2017-05-25T06:48:47.322Z,10.86
2017-05-25T06:49:48.153Z,10.93
2017-05-25T06:50:49.048Z,10.93
2017-05-25T06:51:49.666Z,10.84
2017-05-25T06:52:50.284Z,10.89
2017-05-25T06:53:50.900Z,10.96
2017-05-25T06:54:51.515Z,11.02
2017-05-25T06:55:52.132Z,11.00
2017-05-25T06:56:52.747Z,10.94
2017-05-25T06:57:53.365Z,11.05
2017-05-25T06:58:53.981Z,10.97
2017-05-25T06:59:54.597Z,11.07
2017-05-25T07:00:55.220Z,11.08
2017-05-25T07:01:55.837Z,11.02
2017-05-25T07:02:56.458Z,11.05
2017-05-25T07:03:57.078Z,10.93
2017-05-25T07:04:57.697Z,10.86
2017-05-25T07:05:58.345Z,10.81
2017-05-25T07:06:58.966Z,10.89
2017-05-25T07:07:59.588Z,10.86
2017-05-25T07:09:00.205Z,10.90
2017-05-25T07:10:00.820Z,10.89
2017-05-25T07:11:01.445Z,10.96
2017-05-25T07:12:02.060Z,11.00
2017-05-25T07:13:02.710Z,10.97
2017-05-25T07:14:03.333Z,10.97
2017-05-25T07:15:03.954Z,11.05
2017-05-25T07:16:04.568Z,11.04
2017-05-25T07:17:05.182Z,11.02
2017-05-25T07:18:05.804Z,11.00
2017-05-25T07:19:06.466Z,10.99
2017-05-25T07:20:07.040Z,11.17
2017-05-25T07:21:07.658Z,11.14
2017-05-25T07:22:08.271Z,11.22
2017-05-25T07:23:08.925Z,11.27
2017-05-25T07:24:09.541Z,11.30
2017-05-25T07:25:10.206Z,11.40
2017-05-25T07:26:10.829Z,11.45
2017-05-25T07:27:11.441Z,11.55
2017-05-25T07:28:12.058Z,11.52
2017-05-25T07:29:12.675Z,11.68
2017-05-25T07:30:13.291Z,11.70
2017-05-25T07:31:13.908Z,11.81
2017-05-25T07:32:14.522Z,11.83
2017-05-25T07:33:15.144Z,11.99
2017-05-25T07:34:15.760Z,11.99
2017-05-25T07:35:16.375Z,11.97
2017-05-25T07:36:17.029Z,11.90
2017-05-25T07:37:17.642Z,12.00
2017-05-25T07:38:18.313Z,12.00
2017-05-25T07:39:18.880Z,11.99
2017-05-25T07:40:19.547Z,12.09
2017-05-25T07:41:20.163Z,12.09
2017-05-25T07:42:20.781Z,12.07
2017-05-25T07:43:21.397Z,12.13
2017-05-25T07:44:22.015Z,12.17
2017-05-25T07:45:22.683Z,12.28
2017-05-25T07:46:23.300Z,12.28
2017-05-25T07:47:23.916Z,12.28
2017-05-25T07:48:24.538Z,12.39
2017-05-25T07:49:25.155Z,12.36
2017-05-25T07:50:25.821Z,12.35
2017-05-25T07:51:26.443Z,12.28
2017-05-25T07:52:27.058Z,12.32
2017-05-25T07:53:27.674Z,12.31
2017-05-25T07:54:28.326Z,12.31
2017-05-25T07:55:28.994Z,12.39
2017-05-25T07:56:29.611Z,12.35
2017-05-25T07:57:30.227Z,12.45
2017-05-25T07:58:30.845Z,12.46
2017-05-25T07:59:31.465Z,12.50
2017-05-25T08:00:32.081Z,12.55
2017-05-25T08:01:32.698Z,12.60
2017-05-25T08:02:33.314Z,12.58
2017-05-25T08:03:33.936Z,12.73
2017-05-25T08:04:34.560Z,12.70
2017-05-25T08:05:35.228Z,12.70
2017-05-25T08:06:35.842Z,12.70
2017-05-25T08:07:36.466Z,12.72
2017-05-25T08:08:37.079Z,12.80
2017-05-25T08:09:37.701Z,12.70
2017-05-25T08:10:38.351Z,12.78
2017-05-25T08:11:38.971Z,12.86
2017-05-25T08:12:39.585Z,12.98
2017-05-25T08:13:40.203Z,13.09
2017-05-25T08:14:40.823Z,13.11
2017-05-25T08:15:41.494Z,13.03
2017-05-25T08:16:42.108Z,13.11
2017-05-25T08:17:42.725Z,13.15
2017-05-25T08:18:43.351Z,13.15
2017-05-25T08:19:43.964Z,13.15
2017-05-25T08:20:44.582Z,13.33
2017-05-25T08:21:45.204Z,13.46
2017-05-25T08:22:45.855Z,13.46
2017-05-25T08:23:46.473Z,13.41
2017-05-25T08:24:47.129Z,13.30
2017-05-25T08:25:47.751Z,13.33
2017-05-25T08:26:48.367Z,13.46
2017-05-25T08:27:48.983Z,13.56
2017-05-25T08:28:49.599Z,13.60
2017-05-25T08:29:50.219Z,13.71
2017-05-25T08:30:50.887Z,13.74
2017-05-25T08:31:51.506Z,13.92
2017-05-25T08:32:52.125Z,13.95
2017-05-25T08:33:52.776Z,13.99
2017-05-25T08:34:53.425Z,14.03
2017-05-25T08:35:54.048Z,14.25
2017-05-25T08:36:54.664Z,14.22
2017-05-25T08:37:55.289Z,14.32
2017-05-25T08:38:55.909Z,14.20
2017-05-25T08:39:56.524Z,14.25
2017-05-25T08:40:57.195Z,14.30
2017-05-25T08:41:57.811Z,14.28
2017-05-25T08:42:58.435Z,14.26
2017-05-25T08:43:59.056Z,14.15
2017-05-25T08:44:59.672Z,14.22
2017-05-25T08:46:00.379Z,14.17
2017-05-25T08:47:00.993Z,14.18
2017-05-25T08:48:01.617Z,14.14
2017-05-25T08:49:02.238Z,14.11
2017-05-25T08:50:02.853Z,14.15
2017-05-25T08:51:03.472Z,14.25
2017-05-25T08:52:04.089Z,14.15
2017-05-25T08:53:04.707Z,14.25
2017-05-25T08:54:05.326Z,14.29
2017-05-25T08:55:05.943Z,14.36
2017-05-25T08:56:06.613Z,14.30
2017-05-25T08:57:07.238Z,14.41
2017-05-25T08:58:07.894Z,14.44
2017-05-25T08:59:08.509Z,14.51
2017-05-25T09:00:09.127Z,14.60
2017-05-25T09:01:09.746Z,14.62
2017-05-25T09:02:10.370Z,14.65
2017-05-25T09:03:10.990Z,14.72
2017-05-25T09:04:11.610Z,14.73
2017-05-25T09:05:12.226Z,14.78
2017-05-25T09:06:12.847Z,14.79
2017-05-25T09:07:13.464Z,14.92
2017-05-25T09:08:14.083Z,15.02
2017-05-25T09:09:14.700Z,15.03
2017-05-25T09:10:15.351Z,15.10
2017-05-25T09:11:15.980Z,15.11
2017-05-25T09:12:16.625Z,15.18
2017-05-25T09:13:17.240Z,15.22
2017-05-25T09:14:17.860Z,15.18
2017-05-25T09:15:18.479Z,15.14
2017-05-25T09:16:19.098Z,15.09
2017-05-25T09:17:19.721Z,15.11
2017-05-25T09:18:20.342Z,15.10
2017-05-25T09:19:20.960Z,15.14
2017-05-25T09:20:21.579Z,15.03
2017-05-25T09:21:22.249Z,14.97
2017-05-25T09:22:22.874Z,14.88
2017-05-25T09:23:23.491Z,14.92
2017-05-25T09:24:24.116Z,14.99
2017-05-25T09:25:24.771Z,14.96
2017-05-25T09:26:25.388Z,15.02
2017-05-25T09:27:26.007Z,15.09
2017-05-25T09:28:26.657Z,15.04
2017-05-25T09:29:27.281Z,15.03
2017-05-25T09:30:27.898Z,15.10
2017-05-25T09:31:28.517Z,15.02
2017-05-25T09:32:29.144Z,15.00
2017-05-25T09:33:29.761Z,14.84
2017-05-25T09:34:30.375Z,14.82
2017-05-25T09:35:30.996Z,15.00
2017-05-25T09:36:31.615Z,15.09
2017-05-25T09:37:32.239Z,15.11
2017-05-25T09:38:32.855Z,15.18
2017-05-25T09:39:33.472Z,15.28
2017-05-25T09:40:34.091Z,15.21
2017-05-25T09:41:34.712Z,15.22
2017-05-25T09:42:35.330Z,15.31
2017-05-25T09:43:35.949Z,15.40
2017-05-25T09:44:36.573Z,15.51
2017-05-25T09:45:37.188Z,15.59
2017-05-25T09:46:37.812Z,15.65
2017-05-25T09:47:38.430Z,15.73
2017-05-25T09:48:39.049Z,15.72
2017-05-25T09:49:39.667Z,15.77
2017-05-25T09:50:40.288Z,15.75
2017-05-25T09:51:40.909Z,15.76
2017-05-25T09:52:41.527Z,15.73
2017-05-25T09:53:42.147Z,15.88
2017-05-25T09:54:42.768Z,15.83
2017-05-25T09:55:43.388Z,16.01
2017-05-25T09:56:44.014Z,16.01
2017-05-25T09:57:44.642Z,16.23
2017-05-25T09:58:45.255Z,16.21
2017-05-25T09:59:45.873Z,16.04
2017-05-25T10:00:46.492Z,16.09
2017-05-25T10:01:47.115Z,16.10
2017-05-25T10:02:47.734Z,16.20
2017-05-25T10:03:48.360Z,16.21
2017-05-25T10:04:48.977Z,16.35
2017-05-25T10:05:49.603Z,16.38
2017-05-25T10:06:50.270Z,16.46
2017-05-25T10:07:50.891Z,16.49
2017-05-25T10:08:51.511Z,16.51
2017-05-25T10:09:52.130Z,16.46
2017-05-25T10:10:52.752Z,16.46
2017-05-25T10:11:53.373Z,16.43
2017-05-25T10:12:53.997Z,16.61
2017-05-25T10:13:54.612Z,16.61
2017-05-25T10:14:55.231Z,16.64
2017-05-25T10:15:55.853Z,16.51
2017-05-25T10:16:56.530Z,16.68
2017-05-25T10:17:57.189Z,16.71
2017-05-25T10:18:57.803Z,16.83
2017-05-25T10:19:58.428Z,16.81
2017-05-25T10:20:59.048Z,16.83
2017-05-25T10:21:59.668Z,16.65
2017-05-25T10:23:00.291Z,16.61
2017-05-25T10:24:00.911Z,16.64
2017-05-25T10:25:01.536Z,16.74
2017-05-25T10:26:02.156Z,16.89
2017-05-25T10:27:02.832Z,17.12
2017-05-25T10:28:03.450Z,17.33
2017-05-25T10:29:04.102Z,17.56
2017-05-25T10:30:04.722Z,17.71
2017-05-25T10:31:05.343Z,17.60
2017-05-25T10:32:06.020Z,17.49
2017-05-25T10:33:06.642Z,17.38
2017-05-25T10:34:07.267Z,17.49
2017-05-25T10:35:07.885Z,17.57
2017-05-25T10:36:08.513Z,17.49
2017-05-25T10:37:09.131Z,17.54
2017-05-25T10:38:09.757Z,17.48
2017-05-25T10:39:10.374Z,17.60
2017-05-25T10:40:10.996Z,17.57
2017-05-25T10:41:11.618Z,17.87
2017-05-25T10:42:12.288Z,17.87
2017-05-25T10:43:12.910Z,17.92
2017-05-25T10:44:13.537Z,17.90
2017-05-25T10:45:14.162Z,17.94
2017-05-25T10:46:14.780Z,17.94
2017-05-25T10:47:15.399Z,17.89
2017-05-25T10:48:16.020Z,17.85
2017-05-25T10:49:16.643Z,17.59
2017-05-25T10:50:17.265Z,17.59
2017-05-25T10:51:18.087Z,17.67
2017-05-25T10:52:18.758Z,17.74
2017-05-25T10:53:19.378Z,17.79
2017-05-25T10:54:20.003Z,17.71
2017-05-25T10:55:20.621Z,17.64
2017-05-25T10:56:21.244Z,17.67
2017-05-25T10:57:21.914Z,17.71
2017-05-25T10:58:22.536Z,17.80
2017-05-25T10:59:23.157Z,18.01
2017-05-25T11:00:23.779Z,18.25
2017-05-25T11:01:24.406Z,18.15
2017-05-25T11:02:25.031Z,18.26
2017-05-25T11:03:25.654Z,18.22
2017-05-25T11:04:26.274Z,18.31
2017-05-25T11:05:26.896Z,18.37
2017-05-25T11:06:27.517Z,18.40
2017-05-25T11:07:28.189Z,18.37
2017-05-25T11:08:28.808Z,18.44
2017-05-25T11:09:29.429Z,18.56
2017-05-25T11:10:30.057Z,18.66
2017-05-25T11:11:30.678Z,18.70
2017-05-25T11:12:31.348Z,18.60
2017-05-25T11:13:31.972Z,18.50
2017-05-25T11:14:32.593Z,18.37
2017-05-25T11:15:33.214Z,18.37
2017-05-25T11:16:33.837Z,18.25
2017-05-25T11:17:34.464Z,18.20
2017-05-25T11:18:35.089Z,18.10
2017-05-25T11:19:35.707Z,18.15
2017-05-25T11:20:36.331Z,18.20
2017-05-25T11:21:36.958Z,18.23
2017-05-25T11:22:37.575Z,18.50
2017-05-25T11:23:38.203Z,18.47
2017-05-25T11:24:38.823Z,18.55
2017-05-25T11:25:39.450Z,18.70
2017-05-25T11:26:40.069Z,18.75
2017-05-25T11:27:40.739Z,18.78
2017-05-25T11:28:41.362Z,18.90
2017-05-25T11:29:41.989Z,18.92
2017-05-25T11:30:42.607Z,18.78
2017-05-25T11:31:43.229Z,18.75
2017-05-25T11:32:43.905Z,18.83
2017-05-25T11:33:44.522Z,18.93
2017-05-25T11:34:45.150Z,19.02
2017-05-25T11:35:45.769Z,19.21
2017-05-25T11:36:46.392Z,19.36
2017-05-25T11:37:47.067Z,19.34
2017-05-25T11:38:47.721Z,19.41
2017-05-25T11:39:48.344Z,19.45
2017-05-25T11:40:48.969Z,19.34
2017-05-25T11:41:49.588Z,19.24
2017-05-25T11:42:50.212Z,19.19
2017-05-25T11:43:50.838Z,19.02
2017-05-25T11:44:51.458Z,19.07
2017-05-25T11:45:52.086Z,19.15
2017-05-25T11:46:52.741Z,19.14
2017-05-25T11:47:53.364Z,19.00
2017-05-25T11:48:53.986Z,18.83
2017-05-25T11:49:54.610Z,18.71
2017-05-25T11:50:55.231Z,18.71
2017-05-25T11:51:55.859Z,18.77
2017-05-25T11:52:56.479Z,18.93
2017-05-25T11:53:57.103Z,18.95
2017-05-25T11:54:57.724Z,18.89
2017-05-25T11:55:58.346Z,18.89
2017-05-25T11:56:58.968Z,18.89
2017-05-25T11:57:59.595Z,18.78
2017-05-25T11:59:00.221Z,18.77
2017-05-25T12:00:00.847Z,18.81
2017-05-25T12:01:01.474Z,18.86
2017-05-25T12:02:02.093Z,18.86
2017-05-25T12:03:02.772Z,18.89
2017-05-25T12:04:03.397Z,18.89
2017-05-25T12:05:04.016Z,18.98
2017-05-25T12:06:04.644Z,18.98
2017-05-25T12:07:05.265Z,18.89
2017-05-25T12:08:05.927Z,18.93
2017-05-25T12:09:06.548Z,19.08
2017-05-25T12:10:07.203Z,19.18
2017-05-25T12:11:07.827Z,19.15
2017-05-25T12:12:08.457Z,19.27
2017-05-25T12:13:09.072Z,19.31
2017-05-25T12:14:09.697Z,19.34
2017-05-25T12:15:10.319Z,19.31
2017-05-25T12:16:10.941Z,19.37
2017-05-25T12:17:11.563Z,19.41
2017-05-25T12:18:12.234Z,19.30
2017-05-25T12:19:12.865Z,19.30
2017-05-25T12:20:13.491Z,19.39
2017-05-25T12:21:14.112Z,19.48
2017-05-25T12:22:14.767Z,19.49
2017-05-25T12:23:15.390Z,19.49
2017-05-25T12:24:16.015Z,19.48
2017-05-25T12:25:16.639Z,19.29
2017-05-25T12:26:17.270Z,19.36
2017-05-25T12:27:17.923Z,19.24
2017-05-25T12:28:18.597Z,19.37
2017-05-25T12:29:19.222Z,19.33
2017-05-25T12:30:19.844Z,19.26
2017-05-25T12:31:20.467Z,19.27
2017-05-25T12:32:21.090Z,19.14
2017-05-25T12:33:21.762Z,19.24
2017-05-25T12:34:22.387Z,19.26
2017-05-25T12:35:23.043Z,19.34
2017-05-25T12:36:23.666Z,19.54
2017-05-25T12:37:24.321Z,19.81
2017-05-25T12:38:24.994Z,19.77
2017-05-25T12:39:25.626Z,19.69
2017-05-25T12:40:26.246Z,19.77
2017-05-25T12:41:26.868Z,19.88
2017-05-25T12:42:27.491Z,20.18
2017-05-25T12:43:28.455Z,20.32
2017-05-25T12:44:29.076Z,20.34
2017-05-25T12:45:29.707Z,20.47
2017-05-25T12:46:30.371Z,20.43
2017-05-25T12:47:30.990Z,20.32
2017-05-25T12:48:31.614Z,20.37
2017-05-25T12:49:32.243Z,20.25
2017-05-25T12:50:32.865Z,20.31
2017-05-25T12:51:33.494Z,20.32
2017-05-25T12:52:34.116Z,20.25
2017-05-25T12:53:34.795Z,20.03
2017-05-25T12:54:35.416Z,20.13
2017-05-25T12:55:36.041Z,20.13
2017-05-25T12:56:36.664Z,20.07
2017-05-25T12:57:37.328Z,20.03
2017-05-25T12:58:37.946Z,20.06
2017-05-25T12:59:38.609Z,19.95
2017-05-25T13:00:39.237Z,19.89
2017-05-25T13:01:39.858Z,19.89